Dernières infos :  

11/11/2018  Mise à jour des tableaux d'analyses décadaires : rubrique climatologie
04/1/2018 Mise en ligne de la synthèse climatologique d'OCTOBRE 2018 : 
CLIQUEZ ICI
2/11/2018  Mise à jour des tableaux d'analyses décadaires, mensuelles et annuelles : rubrique climatologie   

Si l'entête du tableau ne s'affiche pas correctement, => actualisez la page (F5 avec Internet Explorer, Chrome...).
Utilisez l'ascenseur sur la droite des lignes du tableau pour faire défiler verticalement les jours du mois.

TABLEAU DES DONNEES COMPLETES NOAA de AOUT 2018

DATE TEMPERATURE
sous abri
TEMPARATURE 
au sol
VENT  et  Indice de Refroidissement Eolien  PRECIPITATIONS (en mm/m2)
et Intensité
PRESSION ATMOSPHERIQUE (en hPa) HUMIDITE de l'AIR RADIATIONS SOLAIRES (en W/m2)
Mini Moy. Maxi Mini Moy. Maxi Moyen Rafale I.R.E.
Minii
Précip. jour Cumul mois Intensité Maxi Mini Moy. Maxi Mini Moy. Maxi Pic maxi du jour Total jour
01/08/18 21.1° 26.4° 32.3° 19.4° 26.8° 35.6° 7.2km/h dir ONO 29km/h dir O 21.1° 0 0 1014.5 1015.9 1017.4 46% 62.3% 77% 981 72 911
02/08/18 17.3° 25.8° 33.7° 16.1° 26.2° 37.2° 6.9km/h dir ONO 30.6km/h dir O 17.3° 0 0 1015.4 1017.2 1019 40% 66% 92% 831 78 664
03/08/18 18.8° 27.6° 35.3° 16.7° 27.7° 38.3° 4.2km/h dir O 22.5km/h dir O 18.8° 0 0 1013.2 1015.4 1016.9 41% 60.5% 86% 826 77 761
04/08/18 20.4° 28.9° 36.6° 18.9° 29.2° 39.4° 6.8km/h dir ONO 30.6km/h dir O 20.4° 0 0 1013.4 1014.6 1015.6 29% 57.1% 89% 819 25 833
05/08/18 20.2° 28° 35.3° 17.8° 28.1° 37.8° 6.8km/h dir ONO 27.4km/h dir N 20.2° 0 0 1012.8 1014.5 1015.9 35% 53.7% 75% 812 26 006
06/08/18 21.7° 28.6° 36.7° 20° 28.5° 40° 4.5km/h dir SSE 25.7km/h dir E 21.7° 0 0 1010.3 1012.6 1014.4 35% 56.2% 80% 935 22 618
07/08/18 23.7° 29.4° 35.8° 22.8° 29.6° 38.3° 10.5km/h dir SSE 41.8km/h dir ESE 23.8° 0 0 1007.2 1009.8 1011.6 29% 48.8% 65% 824 25 114
08/08/18 21.3° 25.1° 30.8° 20.6° 25.9° 34.4° 6.3km/h dir ONO 35.4km/h dir SSE 21.3° 0.6 0.6 1009 1011.8 1014.4 52% 70.4% 87% 844 20 458
09/08/18 18.4° 21.3° 24.5° 17.8° 21° 23.9° 6.6km/h dir SSE 41.8km/h dir SSE 18.4° 22 22.6 99.4mm/h 1009.1 1013.9 1020.8 73% 86.5% 95% 466 5 462
10/08/18 13.2° 19.5° 25.7° 12.2° 19.9° 29.4° 3.5km/h dir NNE 19.3km/h dir NNE 13.2° 0 22.6 1021.2 1022.9 1024.4 44% 72% 95% 1005 24 865
11/08/18 11.3° 19.1° 25.8° 10° 18.7° 29.4° 5.3km/h dir ONO 25.7km/h dir OSO 11.3° 0 22.6 1019.6 1022.2 1024.3 43% 69.4% 94% 846 25 808
12/08/18 11.5° 22.3° 32.3° 10° 22.5° 35° 5.6km/h dir SSE 30.6km/h dir SSE 11.5° 0 22.6 1009.8 1014.7 1019.5 31% 62.9% 94% 847 77 637
13/08/18 18.9° 22.3° 27.2° 17.8° 22.4° 30.6° 7.7km/h dir SSE 35.4km/h dir SSE 18.9° 8.2 30.8 71.2mm/h 1009.5 1010.9 1013.2 58% 78.3% 93% 969 35 843
14/08/18 17.2° 20.6° 26.2° 15° 20.8° 30° 4.8km/h dir ONO 27.4km/h dir O 17.3° 5.6 36.4 79.4mm/h 1013.1 1015.7 1018.7 52% 80.5% 96% 1118 46 868
15/08/18 13.3° 20.6° 27.6° 12.2° 20.7° 31.1° 6.3km/h dir ONO 27.4km/h dir ONO 13.3° 0 36.4 1016.6 1018.2 1019.5 49% 73.6% 95% 831 74 872
16/08/18 13.6° 22.3° 31.4° 12.2° 22.3° 34.4° 2.7km/h dir O 16.1km/h dir SSO 13.6° 0 36.4 1011.3 1014.4 1016.7 40% 71.3% 96% 831 74 598
17/08/18 18.2° 20.6° 23.8° 15.6° 20.1° 26.1° 5.3km/h dir ONO 24.1km/h dir ONO 18.2° 7.2 43.6 24.2mm/h 1012 1015.5 1018.8 70% 80.3% 93% 923 34 490
18/08/18 15.3° 21° 26.8° 14.4° 21.1° 29.4° 8.5km/h dir ONO 29km/h dir NNE 15.3° 0 43.6 1018.8 1019.9 1021.2 46% 68.2% 92% 802 70 957
19/08/18 13.8° 21.2° 28.6° 11.7° 21° 31.7° 5.5km/h dir ONO 24.1km/h dir O 13.8° 0 43.6 1018.4 1020.1 1021.5 45% 65.3% 85% 809 72 928
20/08/18 13.3° 21.9° 29.7° 11.7° 21.7° 33.3° 6km/h dir ONO 29km/h dir N 13.3° 0 43.6 1015.9 1018.2 1019.4 45% 70% 94% 803 72 138
21/08/18 16.9° 23.6° 30.4° 15.6° 23.8° 33.9° 6.1km/h dir ONO 20.9km/h dir SO 16.9° 0 43.6 1014.1 1016.5 1018.1 49% 71.7% 92% 788 71 226
22/08/18 16.4° 24.5° 33.6° 15° 24.6° 36.7° 3.2km/h dir O 22.5km/h dir SO 16.4° 0 43.6 1012.9 1015 1016.5 40% 69.3% 95% 786 71 515
23/08/18 18.2° 24.3° 33.1° 16.1° 24.5° 36.7° 3.9km/h dir SE 41.8km/h dir SO 18.2° 0 43.6 1010.2 1013.1 1015.9 39% 67.1% 88% 784 67 869
24/08/18 15.8° 20.7° 24.9° 12.8° 20.4° 28.9° 5km/h dir O 25.7km/h dir OSO 15.9° 0 43.6 1013 1014.6 1015.8 53% 72.3% 91% 993 45 755
25/08/18 11.1° 14.6° 20.4° 8.9° 14.2° 26.1° 2.9km/h dir ESE 29km/h dir ONO 11.1° 2.2 45.8 6.4mm/h 1014.5 1015.7 1017.2 57% 80.5% 94% 912 29 014
26/08/18 10.2° 15.3° 22.3° 8.9° 15.8° 26.1° 5.3km/h dir ONO 25.7km/h dir O 10.2° 0.2 46 1014.5 1016.5 1017.9 42% 73.5% 96% 817 70 929
27/08/18 8.8° 18.7° 29.1° 7.2° 18.7° 32.8° 2.9km/h dir SE 17.7km/h dir OSO 8.9° 0 46 1015.3 1016.1 1017.3 39% 66.7% 92% 782 68 529
28/08/18 13.3° 21.7° 31.2° 11.7° 21.5° 34.4° 2.4km/h dir ONO 19.3km/h dir N 13.3° 0 46 1012.1 1015.5 1017.4 37% 71.6% 95% 796 67 637
29/08/18 18.5° 22.9° 29.1° 16.1° 22.8° 33.3° 7.2km/h dir SSE 49.9km/h dir SO 18.7° 2 48 32.8mm/h 1012.1 1014.5 1019.5 46% 69.4% 90% 1046 42 137
30/08/18 14.3° 17.7° 21.3° 12.8° 17.9° 25° 5.6km/h dir ONO 24.1km/h dir ONO 14.3° 0 48 1019.1 1020.3 1021.4 58% 75.2% 91% 805 42 121
31/08/18 14.2° 18° 22.8° 12.2° 17.8° 27.8° 7.2km/h dir ONO 27.4km/h dir 0 13.5° 0 48 1018 1018.9 1020.5 57% 75.7% 90% 970 49 475

RETOUR ACCUEIL


Date de création : 01/09/2018 : 17:31
Catégorie : ANNEE 2018 - MOIS PASSES - AOUT 2018
Page lue 74 fois


Réactions à cet article

Personne n'a encore laissé de commentaire.
Soyez donc le premier !